Terminal Aerodrome Forecast
Issued by NWS

Home | Current Version | Previous Version | Text Only | Print | Product List | Glossary On
Versions: 1 2 3 4 5 6 7 8 9 10 11 12 13 14 15 16 17 18
000
FTPA31 PHFO 110539
TAFHLI
TAF
PHLI 110539Z 1106/1206 25005KT P6SM SCT025 BKN035
     FM112000 18007KT P6SM SCT025 BKN050
     FM112300 16008KT 5SM -SHRA BKN025 OVC045=

USA.gov is the U.S. government's official web portal to all federal, state and local government web resources and services.